Terminal Aerodrome Forecast
Issued by NWS

Home | Current Version | Previous Version | Text Only | Print | Product List | Glossary On
Versions: 1 2 3 4 5 6 7 8 9 10 11 12 13 14 15 16 17 18
000
FTUS43 KGRR 252338
TAFBTL
TAF
KBTL 252338Z 2600/2624 10012KT 6SM -SHRA BR OVC015
      TEMPO 2600/2602 OVC008
     FM260700 10010KT 2SM -RA BR VCTS OVC009CB
     FM261000 12009KT 2SM -RA BR VCTS OVC005CB
     FM261500 16010KT 3SM -RA BR OVC007
     FM262300 21009KT 2SM BR VCTS OVC015CB=

USA.gov is the U.S. government's official web portal to all federal, state and local government web resources and services.